createdAt,value
2019-04-21T07:06:13.165Z,2456.00
2019-04-21T07:06:57.782Z,2480.00
2019-04-21T07:08:21.671Z,2504.00
2019-04-21T07:09:16.262Z,2532.00
2019-04-21T07:10:22.070Z,2568.00
2019-04-21T07:10:53.339Z,2596.00
2019-04-21T07:11:52.662Z,2624.00
2019-04-21T07:13:15.290Z,2648.00
2019-04-21T07:14:13.601Z,2672.00
2019-04-21T07:14:53.040Z,2696.00
2019-04-21T07:16:04.534Z,2720.00
2019-04-21T07:17:17.891Z,2744.00
2019-04-21T07:17:59.943Z,2764.00
2019-04-21T07:19:55.955Z,2812.00
2019-04-21T07:20:56.421Z,2832.00
2019-04-21T07:21:57.459Z,2856.00
2019-04-21T07:22:56.838Z,2864.00
2019-04-21T07:24:02.010Z,2888.00
2019-04-21T07:25:00.317Z,2896.00
2019-04-21T07:26:01.021Z,2916.00
2019-04-21T07:27:02.620Z,2928.00
2019-04-21T07:27:59.313Z,2948.00
2019-04-21T07:29:23.657Z,2964.00
2019-04-21T07:29:58.263Z,2968.00
2019-04-21T07:31:03.621Z,2980.00
2019-04-21T07:32:00.284Z,2992.00
2019-04-21T07:33:47.726Z,3004.00
2019-04-21T07:34:23.846Z,3016.00
2019-04-21T07:34:57.645Z,3028.00
2019-04-21T07:35:56.890Z,3040.00
2019-04-21T07:37:59.088Z,3060.00
2019-04-21T07:39:16.886Z,3072.00
2019-04-21T07:40:07.744Z,3080.00
2019-04-21T07:40:54.701Z,3088.00
2019-04-21T07:41:55.295Z,3100.00
2019-04-21T07:43:16.674Z,3112.00
2019-04-21T07:43:51.749Z,3124.00
2019-04-21T07:44:56.379Z,3140.00
2019-04-21T07:46:13.009Z,3148.00
2019-04-21T07:46:49.035Z,3160.00
2019-04-21T07:47:56.549Z,3160.00
2019-04-21T07:48:59.865Z,3164.00
2019-04-21T07:50:22.760Z,3172.00
2019-04-21T07:51:20.944Z,3192.00
2019-04-21T07:52:02.984Z,3188.00
2019-04-21T07:53:05.129Z,3204.00
2019-04-21T07:54:23.756Z,3196.00
2019-04-21T07:56:06.268Z,3212.00
2019-04-21T07:56:44.228Z,3220.00
2019-04-21T07:58:21.328Z,3224.00
2019-04-21T07:59:27.224Z,3232.00
2019-04-21T08:00:20.594Z,3248.00
2019-04-21T08:01:04.774Z,3252.00
2019-04-21T08:02:23.390Z,3256.00
2019-04-21T08:03:05.864Z,3264.00
2019-04-21T08:04:03.894Z,3272.00
2019-04-21T08:05:26.491Z,3276.00
2019-04-21T08:05:58.947Z,3280.00
2019-04-21T08:07:21.980Z,3284.00
2019-04-21T08:09:22.926Z,3300.00
2019-04-21T08:09:58.713Z,3308.00
2019-04-21T08:11:01.704Z,3320.00
2019-04-21T08:12:16.243Z,3328.00
2019-04-21T08:12:54.329Z,3344.00
2019-04-21T08:13:57.812Z,3356.00
2019-04-21T08:15:03.178Z,3368.00
2019-04-21T08:16:07.689Z,3388.00
2019-04-21T08:17:59.630Z,3400.00
2019-04-21T08:18:58.056Z,3440.00
2019-04-21T08:20:00.575Z,3428.00
2019-04-21T08:21:00.772Z,3440.00
2019-04-21T08:22:12.555Z,3460.00
2019-04-21T08:23:05.957Z,3476.00
2019-04-21T08:23:55.283Z,3484.00
2019-04-21T08:25:02.957Z,3504.00
2019-04-21T08:26:04.737Z,3512.00
2019-04-21T08:27:28.300Z,3520.00
2019-04-21T08:28:01.467Z,3524.00
2019-04-21T08:29:07.722Z,3544.00
2019-04-21T08:29:58.183Z,3544.00
2019-04-21T08:31:33.981Z,3560.00
2019-04-21T08:32:26.544Z,3564.00
2019-04-21T08:33:10.914Z,3584.00
2019-04-21T08:34:08.422Z,3584.00
2019-04-21T08:35:20.771Z,3616.00
2019-04-21T08:37:03.968Z,3640.00
2019-04-21T08:38:08.846Z,3632.00
2019-04-21T08:39:01.635Z,3664.00
2019-04-21T08:41:08.153Z,3672.00
2019-04-21T08:42:06.319Z,3692.00
2019-04-21T08:42:59.847Z,3704.00
2019-04-21T08:44:40.661Z,3716.00
2019-04-21T08:45:11.094Z,3708.00
2019-04-21T08:46:05.451Z,3756.00
2019-04-21T08:47:07.509Z,3760.00
2019-04-21T08:48:16.969Z,3784.00
2019-04-21T08:49:01.609Z,3788.00
2019-04-21T08:50:09.548Z,3800.00
2019-04-21T08:51:14.067Z,3812.00
2019-04-21T08:52:28.361Z,3824.00
2019-04-21T08:53:19.693Z,3844.00
2019-04-21T08:54:11.877Z,3848.00
2019-04-21T08:55:13.966Z,3872.00
2019-04-21T08:56:10.847Z,3872.00
2019-04-21T08:57:10.101Z,3888.00
2019-04-21T09:03:06.506Z,3960.00
2019-04-21T09:03:44.630Z,3992.00
2019-04-21T09:04:39.252Z,3996.00
2019-04-21T09:06:09.278Z,4008.00
2019-04-21T09:07:45.933Z,4044.00
2019-04-21T09:08:46.167Z,4060.00
2019-04-21T09:09:43.465Z,4072.00
2019-04-21T09:10:49.820Z,4100.00
2019-04-21T09:11:44.472Z,4108.00
2019-04-21T09:12:46.125Z,4108.00
2019-04-21T09:13:40.948Z,4136.00
2019-04-21T09:14:44.757Z,4156.00
2019-04-21T09:15:42.525Z,4164.00
2019-04-21T09:16:41.126Z,4172.00
2019-04-21T09:18:04.870Z,4192.00
2019-04-21T09:18:39.339Z,4216.00
2019-04-21T09:19:51.809Z,4232.00
2019-04-21T09:20:48.193Z,4252.00
2019-04-21T09:21:45.422Z,4264.00
2019-04-21T09:22:41.554Z,4284.00
2019-04-21T09:24:14.762Z,4304.00
2019-04-21T09:24:49.803Z,4308.00
2019-04-21T09:25:49.482Z,4320.00
2019-04-21T09:26:43.203Z,4352.00
2019-04-21T09:27:45.436Z,4368.00
2019-04-21T09:28:39.487Z,4380.00
2019-04-21T09:29:36.095Z,4396.00
2019-04-21T09:30:26.343Z,4424.00
2019-04-21T09:31:48.495Z,4436.00
2019-04-21T09:32:51.654Z,4460.00
2019-04-21T09:33:36.718Z,4480.00
2019-04-21T09:34:33.218Z,4504.00
2019-04-21T09:35:27.048Z,4520.00
2019-04-21T09:36:51.514Z,4576.00
2019-04-21T09:37:41.839Z,4564.00
2019-04-21T09:38:37.144Z,4580.00
2019-04-21T09:39:29.314Z,4588.00
2019-04-21T09:40:32.712Z,4604.00
2019-04-21T09:41:28.306Z,4620.00
2019-04-21T09:42:36.028Z,4644.00
2019-04-21T09:43:35.726Z,4652.00
2019-04-21T09:44:36.522Z,4676.00
2019-04-21T09:45:28.554Z,4688.00
2019-04-21T09:46:27.764Z,4660.00
2019-04-21T09:47:35.143Z,4716.00
2019-04-21T09:48:30.634Z,4744.00
2019-04-21T09:49:33.903Z,4780.00
2019-04-21T09:50:29.516Z,4800.00
2019-04-21T09:51:28.265Z,4836.00
2019-04-21T09:52:38.863Z,4892.00
2019-04-21T09:53:34.521Z,4876.00
2019-04-21T09:54:33.666Z,4920.00
2019-04-21T09:55:45.511Z,4920.00
2019-04-21T09:56:39.572Z,4936.00
2019-04-21T09:57:38.228Z,4944.00
2019-04-21T09:58:34.776Z,4972.00
2019-04-21T09:59:33.620Z,4996.00
2019-04-21T10:00:37.945Z,5052.00
2019-04-21T10:02:05.634Z,5076.00
2019-04-21T10:02:40.183Z,5076.00
2019-04-21T10:03:37.079Z,5100.00
2019-04-21T10:04:31.127Z,5124.00
2019-04-21T10:05:31.591Z,5176.00
2019-04-21T10:06:34.904Z,5188.00
2019-04-21T10:07:35.652Z,5196.00
2019-04-21T10:08:31.819Z,5228.00
2019-04-21T10:11:24.469Z,5272.00
2019-04-21T10:12:07.495Z,5284.00
2019-04-21T10:13:23.156Z,5300.00
2019-04-21T10:14:03.302Z,5332.00
2019-04-21T10:16:41.346Z,5380.00
2019-04-21T10:17:41.677Z,5400.00
2019-04-21T10:18:35.756Z,5420.00
2019-04-21T10:19:36.175Z,5448.00
2019-04-21T10:20:36.344Z,5472.00
2019-04-21T10:21:36.058Z,5492.00
2019-04-21T10:22:35.138Z,5484.00
2019-04-21T10:23:41.623Z,5476.00
2019-04-21T10:24:36.278Z,5552.00
2019-04-21T10:25:36.694Z,5568.00
2019-04-21T10:26:35.632Z,5632.00
2019-04-21T10:27:36.982Z,5660.00
2019-04-21T10:28:37.180Z,5688.00
2019-04-21T10:29:43.030Z,5724.00
2019-04-21T10:30:36.371Z,5784.00
2019-04-21T10:31:36.789Z,5828.00
2019-04-21T10:32:36.494Z,5836.00
2019-04-21T10:33:36.731Z,5868.00
2019-04-21T10:34:41.228Z,5900.00
2019-04-21T10:35:37.104Z,5940.00
2019-04-21T10:36:37.237Z,5952.00
2019-04-21T10:37:47.388Z,5936.00
2019-04-21T10:38:43.226Z,5980.00
2019-04-21T10:39:40.410Z,6032.00
2019-04-21T10:40:39.238Z,6060.00
2019-04-21T10:41:37.475Z,6012.00
2019-04-21T10:42:37.410Z,6100.00
2019-04-21T10:43:37.572Z,6104.00
2019-04-21T10:44:45.095Z,6096.00
2019-04-21T10:45:39.008Z,6120.00
2019-04-21T10:46:38.198Z,6168.00
2019-04-21T10:47:38.867Z,6228.00
2019-04-21T10:48:38.271Z,6260.00
2019-04-21T10:49:38.410Z,6324.00
2019-04-21T10:52:15.550Z,6392.00
2019-04-21T10:53:14.456Z,6436.00
2019-04-21T10:54:13.661Z,6472.00
2019-04-21T10:56:49.526Z,6568.00
2019-04-21T10:57:44.878Z,6564.00
2019-04-21T10:58:44.878Z,6592.00
2019-04-21T10:59:47.871Z,6608.00
2019-04-21T11:00:46.198Z,6668.00
2019-04-21T11:01:45.380Z,6732.00
2019-04-21T11:02:48.914Z,6776.00
2019-04-21T11:03:46.723Z,6840.00
2019-04-21T11:04:46.947Z,6844.00
2019-04-21T11:05:45.881Z,6844.00
2019-04-21T11:06:46.423Z,6888.00
2019-04-21T11:08:01.194Z,6920.00
2019-04-21T11:08:50.307Z,6988.00
2019-04-21T11:09:46.417Z,7012.00
2019-04-21T11:10:47.584Z,7056.00
2019-04-21T11:11:49.664Z,7108.00
2019-04-21T11:13:12.470Z,7168.00
2019-04-21T11:13:46.487Z,7256.00
2019-04-21T11:14:47.211Z,7304.00
2019-04-21T11:15:47.563Z,7364.00
2019-04-21T11:16:49.276Z,7408.00
2019-04-21T11:17:48.847Z,7464.00
2019-04-21T11:18:51.612Z,7516.00
2019-04-21T11:19:48.593Z,7780.00
2019-04-21T11:20:48.923Z,8200.00
2019-04-21T11:21:49.209Z,8468.00
2019-04-21T11:22:49.215Z,26112.00
2019-04-21T11:23:54.259Z,65760.00
2019-04-21T11:24:49.069Z,79200.00
2019-04-21T11:25:49.504Z,80288.00
2019-04-21T11:28:20.683Z,81664.00
2019-04-21T11:29:47.445Z,80512.00
2019-04-21T11:30:20.092Z,81536.00
2019-04-21T11:31:20.932Z,81408.00
2019-04-21T11:32:21.204Z,84512.00
2019-04-21T11:33:21.307Z,88608.00
2019-04-21T11:34:21.106Z,90368.00
2019-04-21T11:35:46.039Z,88320.00
2019-04-21T11:36:21.623Z,83456.00
2019-04-21T11:37:21.967Z,84640.00
2019-04-21T11:38:24.945Z,85824.00
2019-04-21T11:39:31.624Z,85120.00
2019-04-21T11:40:22.103Z,82688.00
2019-04-21T11:41:46.020Z,81184.00
2019-04-21T11:42:21.785Z,82368.00
2019-04-21T11:43:22.085Z,85504.00
2019-04-21T11:44:26.910Z,86784.00
2019-04-21T11:45:22.150Z,87488.00
2019-04-21T11:46:26.776Z,85856.00
2019-04-21T11:47:22.746Z,86272.00
2019-04-21T11:48:22.522Z,87712.00
2019-04-21T11:49:22.521Z,89664.00
2019-04-21T11:50:23.263Z,88608.00
2019-04-21T11:51:47.521Z,84320.00
2019-04-21T11:52:23.020Z,80736.00
2019-04-21T11:53:23.220Z,83296.00
2019-04-21T11:54:23.022Z,89664.00
2019-04-21T11:57:24.903Z,93952.00
2019-04-21T11:57:56.399Z,84288.00
2019-04-21T11:58:55.305Z,82432.00
2019-04-21T11:59:55.557Z,86720.00
2019-04-21T12:00:55.736Z,88032.00
2019-04-21T12:01:55.306Z,85024.00
2019-04-21T12:02:59.577Z,79104.00
2019-04-21T12:03:55.806Z,79872.00
2019-04-21T12:04:57.140Z,83360.00
2019-04-21T12:05:55.837Z,84064.00
2019-04-21T12:06:57.722Z,82016.00
2019-04-21T12:08:00.166Z,82880.00
2019-04-21T12:08:59.310Z,85408.00
2019-04-21T12:09:57.500Z,84768.00
2019-04-21T12:10:57.707Z,86816.00
2019-04-21T12:11:57.062Z,89216.00
2019-04-21T12:12:57.136Z,92064.00
2019-04-21T12:14:00.804Z,89184.00
2019-04-21T12:14:57.642Z,87616.00
2019-04-21T12:15:57.311Z,90016.00
2019-04-21T12:16:57.304Z,92928.00
2019-04-21T12:17:57.304Z,89888.00
2019-04-21T12:19:23.304Z,80192.00
2019-04-21T12:19:58.979Z,75904.00
2019-04-21T12:20:57.804Z,80736.00
2019-04-21T12:22:08.120Z,83328.00
2019-04-21T12:22:58.324Z,82176.00
2019-04-21T12:23:58.545Z,79424.00
2019-04-21T12:25:23.303Z,79072.00
2019-04-21T12:25:59.079Z,80800.00
2019-04-21T12:27:00.019Z,88288.00
2019-04-21T12:27:58.803Z,91424.00
2019-04-21T12:28:59.689Z,93728.00
2019-04-21T12:29:59.663Z,93440.00
2019-04-21T12:31:03.387Z,88384.00
2019-04-21T12:31:59.462Z,85376.00
2019-04-21T12:33:00.115Z,86592.00
2019-04-21T12:34:00.302Z,90496.00
2019-04-21T12:34:59.848Z,94816.00
2019-04-21T12:36:00.009Z,96512.00
2019-04-21T12:37:04.622Z,92640.00
2019-04-21T12:38:00.609Z,86720.00
2019-04-21T12:39:03.008Z,85664.00
2019-04-21T12:40:00.806Z,87552.00
2019-04-21T12:41:00.474Z,90560.00
2019-04-21T12:43:57.039Z,86016.00
2019-04-21T12:44:41.254Z,85408.00
2019-04-21T12:45:35.959Z,84576.00
2019-04-21T12:46:36.241Z,83616.00
2019-04-21T12:47:39.822Z,85312.00
2019-04-21T12:48:36.247Z,89056.00
2019-04-21T12:49:36.251Z,91520.00
2019-04-21T12:50:37.674Z,92800.00
2019-04-21T12:51:37.662Z,90912.00
2019-04-21T12:52:37.869Z,90880.00
2019-04-21T12:53:41.613Z,90720.00
2019-04-21T12:54:59.587Z,85952.00
2019-04-21T12:55:41.097Z,82880.00
2019-04-21T12:56:37.943Z,84256.00
2019-04-21T12:57:37.366Z,89248.00
2019-04-21T12:58:37.747Z,93664.00
2019-04-21T12:59:40.740Z,94144.00
2019-04-21T13:00:38.855Z,88832.00
2019-04-21T13:01:38.933Z,85024.00
2019-04-21T13:02:38.239Z,85184.00
2019-04-21T13:03:39.410Z,88064.00
2019-04-21T13:04:42.239Z,92224.00
2019-04-21T13:05:38.247Z,90464.00
2019-04-21T13:06:39.442Z,86368.00
2019-04-21T13:07:59.740Z,87872.00
2019-04-21T13:08:45.560Z,90304.00
2019-04-21T13:09:40.174Z,94688.00
2019-04-21T13:11:04.430Z,91968.00
2019-04-21T13:11:39.415Z,89088.00
2019-04-21T13:12:39.239Z,88800.00
2019-04-21T13:13:39.931Z,90464.00
2019-04-21T13:14:39.970Z,86976.00
2019-04-21T13:15:39.896Z,82048.00
2019-04-21T13:17:05.552Z,81472.00
2019-04-21T13:17:39.739Z,87680.00
2019-04-21T13:19:01.240Z,88992.00
2019-04-21T13:20:01.357Z,84736.00
2019-04-21T13:20:40.238Z,86272.00
2019-04-21T13:22:05.881Z,90240.00
2019-04-21T13:22:41.945Z,87552.00
2019-04-21T13:23:42.924Z,85856.00
2019-04-21T13:24:42.020Z,85824.00
2019-04-21T13:25:41.644Z,89440.00
2019-04-21T13:26:47.206Z,91136.00
2019-04-21T13:27:45.161Z,88576.00
2019-04-21T13:28:42.463Z,82976.00
2019-04-21T13:29:41.969Z,80960.00
2019-04-21T13:30:44.414Z,81408.00
2019-04-21T13:31:42.535Z,86592.00
2019-04-21T13:32:45.228Z,92032.00
2019-04-21T13:33:42.075Z,91424.00
2019-04-21T13:35:03.435Z,86912.00
2019-04-21T13:35:42.249Z,85280.00
2019-04-21T13:36:43.460Z,86432.00
2019-04-21T13:37:45.920Z,88032.00
2019-04-21T13:39:06.289Z,87712.00
2019-04-21T13:40:09.583Z,86464.00
2019-04-21T13:40:56.961Z,88992.00
2019-04-21T13:41:54.128Z,88800.00
2019-04-21T13:42:51.661Z,84352.00
2019-04-21T13:43:43.309Z,81312.00
2019-04-21T13:44:44.490Z,82528.00
2019-04-21T13:45:43.598Z,85056.00
2019-04-21T13:46:45.064Z,84896.00
2019-04-21T13:47:43.736Z,80704.00
2019-04-21T13:48:48.389Z,78208.00
2019-04-21T13:49:43.744Z,79936.00
2019-04-21T13:51:05.236Z,82304.00
2019-04-21T13:51:45.739Z,79840.00
2019-04-21T13:52:44.903Z,78176.00
2019-04-21T13:53:44.241Z,76384.00
2019-04-21T13:54:47.752Z,76544.00
2019-04-21T13:55:44.744Z,78848.00
2019-04-21T13:56:44.976Z,80096.00
2019-04-21T13:57:46.158Z,77152.00
2019-04-21T13:58:46.317Z,78496.00
2019-04-21T13:59:49.621Z,82560.00
2019-04-21T14:00:45.602Z,80928.00
2019-04-21T14:01:45.686Z,75520.00
2019-04-21T14:02:47.177Z,73824.00
2019-04-21T14:03:47.139Z,75808.00
2019-04-21T14:04:45.735Z,78400.00
2019-04-21T14:05:50.613Z,79168.00
2019-04-21T14:06:46.234Z,75520.00
2019-04-21T14:07:46.282Z,70240.00
2019-04-21T14:08:47.153Z,69248.00
2019-04-21T14:09:55.239Z,74880.00
2019-04-21T14:10:47.306Z,78592.00
2019-04-21T14:12:11.709Z,75104.00
2019-04-21T14:12:46.788Z,70368.00
2019-04-21T14:13:47.983Z,72032.00
2019-04-21T14:14:48.313Z,74496.00
2019-04-21T14:15:49.752Z,73568.00
2019-04-21T14:18:24.635Z,70560.00
2019-04-21T14:19:23.536Z,65312.00
2019-04-21T14:22:20.109Z,66688.00
2019-04-21T14:22:54.338Z,72608.00
2019-04-21T14:23:55.962Z,74048.00
2019-04-21T14:24:56.180Z,73984.00
2019-04-21T14:25:55.601Z,74880.00
2019-04-21T14:26:58.425Z,73856.00
2019-04-21T14:27:56.453Z,70720.00
2019-04-21T14:28:56.737Z,69120.00
2019-04-21T14:29:55.602Z,67552.00
2019-04-21T14:30:56.503Z,65216.00
2019-04-21T14:31:56.095Z,63008.00
2019-04-21T14:33:00.268Z,47840.00
2019-04-21T14:33:56.281Z,31584.00
2019-04-21T14:34:56.624Z,26560.00
2019-04-21T14:35:56.831Z,18432.00
2019-04-21T14:38:32.364Z,29600.00
2019-04-21T14:39:28.202Z,22880.00
2019-04-21T14:40:29.849Z,23552.00
2019-04-21T14:41:28.504Z,10696.00
2019-04-21T14:42:30.116Z,16640.00
2019-04-21T14:43:52.972Z,14788.00
2019-04-21T14:44:29.175Z,14420.00
2019-04-21T14:47:00.889Z,12080.00
2019-04-21T14:48:00.945Z,13356.00
2019-04-21T14:49:05.429Z,11424.00
2019-04-21T14:50:22.316Z,10480.00
2019-04-21T14:51:00.407Z,10408.00
2019-04-21T14:52:01.069Z,11832.00
2019-04-21T14:53:03.171Z,10132.00
2019-04-21T14:54:01.720Z,9992.00
2019-04-21T14:55:04.899Z,11092.00
2019-04-21T14:56:01.421Z,10768.00
2019-04-21T14:57:01.405Z,10996.00
2019-04-21T14:58:03.398Z,10232.00
2019-04-21T14:59:02.681Z,9316.00
2019-04-21T15:00:07.123Z,8560.00
2019-04-21T15:01:23.919Z,8072.00
2019-04-21T15:02:02.201Z,7968.00
2019-04-21T15:03:01.899Z,7860.00
2019-04-21T15:04:01.898Z,7792.00
2019-04-21T15:05:04.028Z,7700.00
2019-04-21T15:06:07.314Z,7708.00
2019-04-21T15:07:03.355Z,7684.00
2019-04-21T15:08:03.411Z,7624.00
2019-04-21T15:09:03.068Z,8524.00
2019-04-21T15:10:11.782Z,8788.00
2019-04-21T15:11:03.234Z,8936.00
2019-04-21T15:12:07.965Z,8300.00
2019-04-21T15:13:03.584Z,11340.00
2019-04-21T15:14:04.090Z,14920.00
2019-04-21T15:15:03.401Z,19136.00
2019-04-21T15:16:04.631Z,16016.00
2019-04-21T15:17:05.066Z,6720.00
2019-04-21T15:18:06.903Z,7144.00
2019-04-21T15:19:04.443Z,6412.00
2019-04-21T15:20:08.553Z,6348.00
2019-04-21T15:21:05.586Z,6088.00
2019-04-21T15:22:26.214Z,5960.00
2019-04-21T15:23:30.514Z,6024.00
2019-04-21T15:24:04.661Z,6016.00
2019-04-21T15:25:26.082Z,5664.00
2019-04-21T15:26:06.084Z,5520.00
2019-04-21T15:27:27.372Z,5408.00
2019-04-21T15:28:04.900Z,5288.00
2019-04-21T15:32:14.770Z,4652.00
2019-04-21T15:33:12.714Z,4504.00
2019-04-21T15:36:08.990Z,4460.00
2019-04-21T15:36:50.228Z,5644.00
2019-04-21T15:37:46.831Z,5568.00
2019-04-21T15:39:09.837Z,4108.00
2019-04-21T15:39:50.959Z,4044.00
2019-04-21T15:40:55.018Z,4100.00
2019-04-21T15:41:48.326Z,3948.00
2019-04-21T15:42:48.434Z,3852.00
2019-04-21T15:43:48.849Z,3812.00
2019-04-21T15:44:48.473Z,3756.00
2019-04-21T15:45:52.901Z,3696.00
2019-04-21T15:46:48.331Z,3660.00
2019-04-21T15:47:49.810Z,3632.00
2019-04-21T15:48:48.851Z,3604.00
2019-04-21T15:49:56.913Z,3584.00
2019-04-21T15:50:50.312Z,3556.00
2019-04-21T15:51:51.917Z,3520.00
2019-04-21T15:52:49.766Z,3476.00
2019-04-21T15:53:49.932Z,3444.00
2019-04-21T15:54:50.376Z,3400.00
2019-04-21T15:55:50.655Z,3368.00
2019-04-21T15:56:53.337Z,3328.00
2019-04-21T15:57:49.330Z,3288.00
2019-04-21T15:58:50.579Z,3256.00
2019-04-21T16:01:42.812Z,3176.00
2019-04-21T16:02:24.712Z,3152.00
2019-04-21T16:03:22.581Z,3132.00
2019-04-21T16:04:22.910Z,3108.00
2019-04-21T16:05:42.738Z,3084.00
2019-04-21T16:06:21.711Z,3056.00
2019-04-21T16:07:22.351Z,3028.00
2019-04-21T16:08:27.004Z,3008.00
2019-04-21T16:09:25.895Z,2984.00
2019-04-21T16:10:34.301Z,2960.00
2019-04-21T16:11:22.235Z,2936.00
2019-04-21T16:12:45.627Z,2916.00
2019-04-21T16:13:23.664Z,2892.00
2019-04-21T16:14:27.095Z,2868.00
2019-04-21T16:15:22.965Z,2848.00
2019-04-21T16:16:45.386Z,2832.00
2019-04-21T16:17:45.529Z,2820.00
2019-04-21T16:18:44.212Z,2788.00
2019-04-21T16:19:48.225Z,2752.00
2019-04-21T16:20:45.888Z,2728.00
2019-04-21T16:21:24.238Z,2700.00
2019-04-21T16:22:44.713Z,2672.00
2019-04-21T16:23:44.713Z,2644.00
2019-04-21T16:24:46.045Z,2616.00
2019-04-21T16:25:50.659Z,2588.00
2019-04-21T16:26:24.601Z,2560.00
2019-04-21T16:27:25.581Z,2532.00
2019-04-21T16:28:46.895Z,2500.00
2019-04-21T16:29:25.012Z,2480.00
2019-04-21T16:30:25.892Z,2456.00
2019-04-21T16:31:49.213Z,2440.00
2019-04-21T16:32:46.213Z,2416.00
2019-04-21T16:33:25.216Z,2396.00
2019-04-21T16:34:53.619Z,2368.00
2019-04-21T16:35:26.654Z,2356.00
2019-04-21T16:36:29.579Z,2340.00
2019-04-21T16:37:27.802Z,2316.00
2019-04-21T16:38:25.901Z,2300.00
2019-04-21T16:39:25.714Z,2276.00
2019-04-21T16:40:27.494Z,2252.00
2019-04-21T16:41:30.216Z,2228.00
2019-04-21T16:42:26.215Z,2208.00
2019-04-21T16:43:27.043Z,2180.00
2019-04-21T16:44:48.901Z,2156.00
2019-04-21T16:45:26.715Z,2132.00
2019-04-21T16:46:51.813Z,2112.00
2019-04-21T16:47:26.714Z,2088.00
2019-04-21T16:48:49.355Z,2068.00
2019-04-21T16:49:27.535Z,2044.00
2019-04-21T16:50:27.967Z,2024.00
2019-04-21T16:51:29.648Z,2004.00
2019-04-21T16:52:32.114Z,1980.00
2019-04-21T16:53:50.150Z,1964.00
2019-04-21T16:54:49.698Z,1940.00
2019-04-21T16:55:28.859Z,1920.00
2019-04-21T16:56:50.066Z,1896.00
2019-04-21T16:57:31.714Z,1876.00
2019-04-21T16:58:30.745Z,1852.00
2019-04-21T16:59:28.712Z,1832.00
2019-04-21T17:02:00.636Z,1780.00
2019-04-21T17:03:04.300Z,1760.00
2019-04-21T17:04:00.342Z,1740.00
2019-04-21T17:05:00.531Z,1712.00
2019-04-21T17:06:03.156Z,1692.00
2019-04-21T17:07:00.968Z,1676.00
2019-04-21T17:08:05.895Z,1652.00
2019-04-21T17:09:01.071Z,1628.00
2019-04-21T17:10:02.415Z,1608.00
2019-04-21T17:11:10.786Z,1588.00
2019-04-21T17:12:22.780Z,1572.00
2019-04-21T17:13:02.280Z,1552.00
2019-04-21T17:14:24.734Z,1528.00
2019-04-21T17:15:37.620Z,1508.00
2019-04-21T17:16:31.957Z,1488.00
2019-04-21T17:17:26.803Z,1468.00
2019-04-21T17:18:39.513Z,1444.00
2019-04-21T17:19:13.210Z,1424.00
2019-04-21T17:20:21.556Z,1404.00
2019-04-21T17:21:05.690Z,1384.00
2019-04-21T17:22:03.786Z,1364.00
2019-04-21T17:23:03.920Z,1340.00
2019-04-21T17:24:02.501Z,1316.00
2019-04-21T17:25:06.611Z,1296.00
2019-04-21T17:26:03.393Z,1272.00
2019-04-21T17:27:03.006Z,1248.00
2019-04-21T17:28:03.584Z,1228.00
2019-04-21T17:29:03.001Z,1204.00
2019-04-21T17:30:06.572Z,1184.00
2019-04-21T17:31:04.724Z,1160.00
2019-04-21T17:32:07.409Z,1140.00
2019-04-21T17:33:05.695Z,1120.00
2019-04-21T17:34:28.832Z,1100.00
2019-04-21T17:38:12.029Z,1012.00
2019-04-21T17:39:13.141Z,984.00
2019-04-21T17:40:15.637Z,964.00
2019-04-21T17:41:21.833Z,940.00
2019-04-21T17:42:20.543Z,920.00
2019-04-21T17:43:14.762Z,896.00
2019-04-21T17:44:11.184Z,876.00
2019-04-21T17:45:37.198Z,848.00
2019-04-21T17:46:13.554Z,832.00
2019-04-21T17:47:22.682Z,808.00
2019-04-21T17:48:16.163Z,788.00
2019-04-21T17:49:12.822Z,764.00
2019-04-21T17:50:37.654Z,740.00
2019-04-21T17:51:13.612Z,720.00
2019-04-21T17:52:16.259Z,696.00
2019-04-21T17:53:14.907Z,672.00
2019-04-21T17:54:39.694Z,652.00
2019-04-21T17:55:18.389Z,628.00
2019-04-21T17:56:41.263Z,608.00
2019-04-21T17:57:34.867Z,584.00
2019-04-21T17:58:28.055Z,560.00
2019-04-21T17:59:44.682Z,540.00
2019-04-21T18:00:52.057Z,520.00
2019-04-21T18:01:37.317Z,500.00
2019-04-21T18:02:56.256Z,476.00
2019-04-21T18:03:46.163Z,456.00
2019-04-21T18:04:30.721Z,436.00
2019-04-21T18:05:32.201Z,416.00
2019-04-21T18:06:36.325Z,392.00
2019-04-21T18:07:49.176Z,372.00
2019-04-21T18:08:37.145Z,356.00
2019-04-21T18:09:40.478Z,336.00
2019-04-21T18:10:31.631Z,316.00
2019-04-21T18:11:37.253Z,300.00
2019-04-21T18:12:33.569Z,284.00
2019-04-21T18:13:19.220Z,268.00
2019-04-21T18:14:15.931Z,248.00
2019-04-21T18:15:32.172Z,232.00
2019-04-21T18:16:26.728Z,216.00
2019-04-21T18:17:46.845Z,204.00
2019-04-21T18:18:16.711Z,192.00
2019-04-21T18:19:20.570Z,176.00
2019-04-21T18:20:15.685Z,160.00
2019-04-21T18:21:16.724Z,148.00
2019-04-21T18:22:43.197Z,140.00
2019-04-21T18:23:37.901Z,128.00
2019-04-21T18:24:22.452Z,116.00
2019-04-21T18:25:28.026Z,104.00
2019-04-21T18:26:34.584Z,100.00
2019-04-21T18:27:26.099Z,88.00
2019-04-21T18:28:16.768Z,80.00
2019-04-21T18:31:12.400Z,60.00
2019-04-21T18:32:17.613Z,52.00
2019-04-21T18:32:53.696Z,48.00
2019-04-21T18:33:58.985Z,40.00
2019-04-21T18:35:00.449Z,36.00
2019-04-21T18:36:20.258Z,36.00
2019-04-21T18:36:53.574Z,28.00
2019-04-21T18:38:23.741Z,24.00
2019-04-21T18:39:32.538Z,20.00
2019-04-21T18:40:05.721Z,20.00
2019-04-21T18:40:57.937Z,16.00
2019-04-21T18:42:09.347Z,12.00
2019-04-21T18:43:24.902Z,12.00
2019-04-21T18:44:23.745Z,8.00
2019-04-21T18:45:34.458Z,8.00
2019-04-21T18:46:14.881Z,4.00
2019-04-21T18:47:16.374Z,4.00
2019-04-21T18:48:05.096Z,4.00
2019-04-21T18:48:57.183Z,4.00
2019-04-21T18:49:54.451Z,4.00
2019-04-21T18:51:02.465Z,4.00
2019-04-21T18:52:09.313Z,0.00
2019-04-21T18:53:04.857Z,4.00
2019-04-21T18:54:15.152Z,0.00
2019-04-21T18:55:05.225Z,0.00
2019-04-21T18:56:00.366Z,4.00
2019-04-21T18:57:04.385Z,0.00
2019-04-21T18:57:59.067Z,0.00
2019-04-21T18:58:55.912Z,0.00
2019-04-21T18:59:55.342Z,0.00
2019-04-21T19:01:03.209Z,0.00
2019-04-21T19:02:18.983Z,0.00
2019-04-21T19:02:58.317Z,0.00
2019-04-21T19:04:00.312Z,0.00
2019-04-21T19:05:03.082Z,0.00
2019-04-21T19:06:01.893Z,0.00
2019-04-21T19:07:09.394Z,0.00
2019-04-21T19:08:14.920Z,0.00
2019-04-21T19:09:14.970Z,0.00
2019-04-21T19:10:22.362Z,0.00
2019-04-21T19:13:29.081Z,0.00
2019-04-21T19:13:51.328Z,0.00
2019-04-21T19:14:46.908Z,0.00
2019-04-21T19:16:08.317Z,0.00
2019-04-21T19:17:10.950Z,0.00
2019-04-21T19:18:27.768Z,0.00
2019-04-21T19:18:47.081Z,0.00
2019-04-21T19:19:59.289Z,0.00
2019-04-21T19:22:17.076Z,0.00
2019-04-21T19:23:21.524Z,0.00
2019-04-21T19:24:24.309Z,0.00
2019-04-21T19:25:23.905Z,0.00
2019-04-21T19:26:42.476Z,0.00
2019-04-21T19:28:19.558Z,0.00
2019-04-21T19:29:24.114Z,0.00
2019-04-21T19:30:49.666Z,0.00
2019-04-21T19:31:46.486Z,0.00
2019-04-21T19:32:19.906Z,0.00
2019-04-21T19:33:14.141Z,0.00
2019-04-21T19:34:26.779Z,0.00
2019-04-21T19:35:03.357Z,0.00
2019-04-21T19:36:05.621Z,0.00
2019-04-21T19:37:09.334Z,0.00
2019-04-21T19:38:07.080Z,0.00
2019-04-21T19:39:08.266Z,0.00
2019-04-21T19:40:40.493Z,0.00
2019-04-21T19:41:20.985Z,0.00
2019-04-21T19:43:52.179Z,0.00
2019-04-21T19:44:52.205Z,0.00
2019-04-21T19:45:46.416Z,0.00
2019-04-21T19:46:57.142Z,0.00
2019-04-21T19:47:52.711Z,0.00
2019-04-21T19:49:05.504Z,0.00
2019-04-21T19:49:55.650Z,0.00
2019-04-21T19:50:50.268Z,0.00
2019-04-21T19:51:51.452Z,0.00
2019-04-21T19:52:46.607Z,0.00
2019-04-21T19:53:44.338Z,0.00
2019-04-21T19:54:39.702Z,0.00
2019-04-21T19:55:36.286Z,0.00
2019-04-21T19:56:38.650Z,0.00
2019-04-21T19:57:35.141Z,0.00
2019-04-21T19:58:40.034Z,0.00
2019-04-21T20:00:00.383Z,0.00
2019-04-21T20:00:36.703Z,0.00
2019-04-21T20:02:00.650Z,0.00
2019-04-21T20:02:36.464Z,0.00